Time;durP1;ratioP1;P1;durP2;ratioP2;P2;SDS_P1;SDS_P2;PMS_P1;PMS_P2;Temp;Humidity;BMP_temperature;BMP_pressure;BME280_temperature;BME280_humidity;BME280_pressure;Samples;Min_cycle;Max_cycle;Signal;HPM_P1;HPM_P2
2022/08/21 00:02:16;;;;;;;;;24.60;22.40;;;;;27.12;53.27;98245.75;6207067;28;97472;-57
2022/08/21 00:05:20;;;;;;;;;18.20;16.40;;;;;27.13;52.94;98244.59;6276240;27;97165;-59
2022/08/21 00:08:24;;;;;;;;;25.00;21.60;;;;;27.15;53.10;98231.22;6266072;27;98395;-60
2022/08/21 00:11:27;;;;;;;;;27.00;25.00;;;;;27.15;53.33;98232.03;6208392;28;97082;-59
2022/08/21 00:14:33;;;;;;;;;27.25;25.75;;;;;27.12;52.79;98218.09;6208163;28;97619;-60
2022/08/21 00:17:37;;;;;;;;;27.00;25.60;;;;;27.20;52.93;98216.34;6207317;28;96525;-59
2022/08/21 00:20:41;;;;;;;;;27.75;23.75;;;;;27.21;52.93;98215.19;6207698;28;97456;-59
2022/08/21 00:23:45;;;;;;;;;28.00;26.00;;;;;27.21;52.91;98212.44;6208854;28;98301;-58
2022/08/21 00:26:49;;;;;;;;;27.80;24.40;;;;;27.22;53.00;98220.38;6219846;27;96783;-58
2022/08/21 00:29:55;;;;;;;;;26.20;24.80;;;;;27.24;52.69;98220.03;6206114;28;97489;-58
2022/08/21 00:32:59;;;;;;;;;28.33;25.33;;;;;27.22;52.91;98217.59;6207964;28;97502;-59
2022/08/21 00:36:04;;;;;;;;;28.80;26.20;;;;;27.25;52.72;98213.34;6207353;28;97190;-59
2022/08/21 00:39:09;;;;;;;;;28.00;25.00;;;;;27.26;52.97;98209.44;6208272;28;97007;-59
2022/08/21 00:42:14;;;;;;;;;27.40;25.00;;;;;27.28;52.63;98207.09;6207193;28;97364;-61
2022/08/21 00:45:20;;;;;;;;;26.50;24.00;;;;;27.11;52.76;98172.22;6207576;28;98195;-61
2022/08/21 00:48:24;;;;;;;;;30.00;28.20;;;;;27.30;52.54;98196.50;6207724;28;98011;-63
2022/08/21 00:51:35;;;;;;;;;24.60;23.20;;;;;27.28;52.59;98188.53;6209518;28;97435;-59
2022/08/21 00:54:41;;;;;;;;;22.50;22.00;;;;;27.28;52.56;98190.50;6211510;28;96548;-63
2022/08/21 00:57:52;;;;;;;;;25.00;24.00;;;;;27.27;52.88;98183.38;6211822;28;96968;-60
2022/08/21 01:00:59;;;;;;;;;26.00;24.00;;;;;27.27;52.77;98189.69;6209842;28;96899;-62
2022/08/21 01:04:07;;;;;;;;;30.00;29.40;;;;;27.25;53.05;98193.97;6210636;28;96925;-60
2022/08/21 01:07:11;;;;;;;;;24.50;23.50;;;;;27.20;52.99;98189.50;6210726;28;96616;-58
2022/08/21 01:10:15;;;;;;;;;25.40;24.40;;;;;27.20;53.02;98183.94;6210966;28;96698;-57
2022/08/21 01:13:27;;;;;;;;;21.75;21.00;;;;;27.19;52.79;98181.53;6211377;28;97469;-63
2022/08/21 01:16:34;;;;;;;;;24.00;23.00;;;;;27.15;53.13;98178.66;6210558;28;96807;-62
2022/08/21 01:19:37;;;;;;;;;25.00;23.75;;;;;27.15;53.09;98190.53;6290834;27;99539;-59
2022/08/21 01:22:42;;;;;;;;;27.20;25.40;;;;;27.12;52.99;98188.44;6209728;28;96378;-59
2022/08/21 01:25:45;;;;;;;;;25.00;24.00;;;;;27.10;53.63;98189.94;6211320;28;96491;-61
2022/08/21 01:28:55;;;;;;;;;23.67;22.67;;;;;27.07;53.68;98177.59;6210651;28;97438;-59
2022/08/21 01:31:59;;;;;;;;;25.75;25.00;;;;;27.05;53.33;98162.53;6270097;27;97490;-60
2022/08/21 01:35:04;;;;;;;;;25.40;23.40;;;;;27.03;53.68;98150.97;6210769;28;96816;-61
2022/08/21 01:38:09;;;;;;;;;27.00;23.60;;;;;27.03;53.71;98153.75;6210938;28;96954;-62
2022/08/21 01:41:12;;;;;;;;;23.25;22.25;;;;;27.00;53.39;98148.91;6210843;28;96945;-62
2022/08/21 01:44:15;;;;;;;;;25.80;23.20;;;;;27.04;53.68;98149.84;6211438;28;96425;-61
2022/08/21 01:47:19;;;;;;;;;23.20;22.60;;;;;27.04;53.85;98144.31;6209865;28;97285;-61
2022/08/21 01:50:23;;;;;;;;;27.60;25.60;;;;;27.05;53.41;98151.44;6210785;27;100016;-61
2022/08/21 01:53:27;;;;;;;;;25.60;24.00;;;;;27.02;54.03;98155.75;6210754;28;96682;-59
2022/08/21 01:56:38;;;;;;;;;29.00;25.40;;;;;27.01;53.60;98151.34;6210061;28;97448;-61
2022/08/21 01:59:42;;;;;;;;;28.60;28.00;;;;;27.00;54.16;98143.38;6203481;27;96823;-61
2022/08/21 02:02:45;;;;;;;;;26.80;24.20;;;;;27.00;53.92;98148.91;6208743;28;97166;-60
2022/08/21 02:05:48;;;;;;;;;24.00;23.00;;;;;27.00;53.85;98148.91;6210034;28;96829;-62
2022/08/21 02:08:54;;;;;;;;;26.00;24.00;;;;;26.95;53.67;98138.09;6209250;27;97753;-61
2022/08/21 02:11:57;;;;;;;;;20.40;19.80;;;;;26.90;53.96;98130.03;6257776;27;98481;-61
2022/08/21 02:15:01;;;;;;;;;27.20;24.00;;;;;26.93;54.05;98143.97;6210891;28;96378;-61
2022/08/21 02:18:06;;;;;;;;;26.50;24.00;;;;;26.92;54.35;98145.13;6209231;28;97495;-60
2022/08/21 02:21:10;;;;;;;;;27.60;26.60;;;;;26.94;54.37;98136.47;6209484;27;97497;-62
2022/08/21 02:24:15;;;;;;;;;25.40;24.40;;;;;26.94;54.25;98134.50;6209598;28;97420;-60
2022/08/21 02:27:18;;;;;;;;;26.80;24.00;;;;;26.94;54.40;98128.97;6209725;28;97308;-60
2022/08/21 02:30:31;;;;;;;;;25.75;24.75;;;;;26.94;54.33;98117.09;6209999;28;96993;-61
2022/08/21 02:33:35;;;;;;;;;26.50;25.25;;;;;26.93;54.52;98115.50;6207361;28;97684;-59
2022/08/21 02:36:38;;;;;;;;;24.60;24.60;;;;;26.92;54.73;98116.66;6247566;27;100179;-60
2022/08/21 02:39:43;;;;;;;;;25.40;23.40;;;;;26.93;54.78;98121.84;6294728;27;97580;-61
2022/08/21 02:42:47;;;;;;;;;23.80;23.00;;;;;26.90;54.50;98114.25;6209390;28;98131;-61
2022/08/21 02:45:51;;;;;;;;;24.60;24.40;;;;;26.92;54.55;98123.00;6208876;28;96863;-61
2022/08/21 02:48:54;;;;;;;;;24.50;23.50;;;;;26.93;54.40;98109.97;6207965;28;97499;-61
2022/08/21 02:51:58;;;;;;;;;24.80;23.00;;;;;26.93;54.48;98115.50;6208686;28;97395;-60
2022/08/21 02:55:03;;;;;;;;;25.00;24.00;;;;;26.96;54.83;98117.56;6207722;28;97623;-60
2022/08/21 02:58:08;;;;;;;;;27.00;25.00;;;;;26.96;54.19;98118.38;6208897;28;97400;-60
2022/08/21 03:01:12;;;;;;;;;27.00;27.00;;;;;26.97;54.41;98106.19;6208153;27;96853;-60
2022/08/21 03:04:15;;;;;;;;;27.00;24.60;;;;;26.98;54.59;98110.53;6209042;28;96951;-61
2022/08/21 03:07:19;;;;;;;;;24.40;23.40;;;;;26.98;54.46;98107.75;6208238;28;96873;-61
2022/08/21 03:10:24;;;;;;;;;26.00;24.25;;;;;27.01;54.64;98111.81;6209095;28;97377;-59
2022/08/21 03:13:28;;;;;;;;;28.40;27.40;;;;;27.02;54.89;98121.72;6217823;27;97579;-61
2022/08/21 03:16:32;;;;;;;;;25.60;24.60;;;;;26.98;54.71;98112.50;6309761;27;97510;-60
2022/08/21 03:19:37;;;;;;;;;37.50;32.50;;;;;27.06;54.40;98123.44;6209327;27;96448;-59
2022/08/21 03:22:41;;;;;;;;;20.50;17.50;;;;;26.96;54.69;98112.84;6273836;27;96975;-59
2022/08/21 03:25:51;;;;;;;;;28.40;25.60;;;;;27.09;54.50;98121.94;6208349;28;97170;-60
2022/08/21 03:28:58;;;;;;;;;30.40;29.40;;;;;27.11;54.70;98125.97;6208286;28;98082;-59
2022/08/21 03:32:02;;;;;;;;;31.00;27.40;;;;;27.13;54.21;98129.19;6208405;28;97402;-62
2022/08/21 03:35:06;;;;;;;;;28.00;25.33;;;;;27.15;54.50;98139.91;6207870;28;96940;-61
2022/08/21 03:38:11;;;;;;;;;17.80;15.60;;;;;27.15;54.62;98143.50;6207718;28;97467;-58
2022/08/21 03:41:17;;;;;;;;;28.00;25.00;;;;;27.16;54.39;98144.31;6200873;28;97088;-61
2022/08/21 03:44:20;;;;;;;;;29.25;28.00;;;;;27.17;54.32;98143.94;6208696;28;97056;-61
2022/08/21 03:47:24;;;;;;;;;26.00;26.00;;;;;27.17;54.16;98148.69;6208291;28;97006;-67
2022/08/21 03:50:31;;;;;;;;;27.80;25.00;;;;;26.99;54.23;98123.22;6293196;27;97416;-61
2022/08/21 03:53:37;;;;;;;;;27.40;25.40;;;;;27.17;54.40;98143.94;6207958;28;97252;-60
2022/08/21 03:56:41;;;;;;;;;25.00;24.00;;;;;27.20;54.26;98150.75;6208663;28;97483;-61
2022/08/21 03:59:46;;;;;;;;;25.40;24.60;;;;;27.23;54.16;98155.56;6207991;28;98324;-60
2022/08/21 04:02:50;;;;;;;;;21.00;19.00;;;;;27.23;54.31;98150.03;6207086;28;97500;-60
2022/08/21 04:05:53;;;;;;;;;28.00;26.00;;;;;27.26;54.22;98154.91;6209736;27;97311;-60
2022/08/21 04:08:57;;;;;;;;;28.50;25.50;;;;;27.23;53.77;98149.22;6276964;27;97391;-60
2022/08/21 04:12:02;;;;;;;;;25.00;23.00;;;;;27.30;54.07;98155.00;6203022;28;97639;-60
2022/08/21 04:15:06;;;;;;;;;27.00;24.80;;;;;27.32;53.97;98155.47;6282927;27;98613;-59
2022/08/21 04:18:10;;;;;;;;;22.75;19.75;;;;;27.33;53.77;98155.09;6291391;27;96934;-63
2022/08/21 04:21:14;;;;;;;;;28.00;25.60;;;;;27.34;53.47;98153.13;6206386;28;97545;-60
2022/08/21 04:24:19;;;;;;;;;25.40;24.60;;;;;27.35;53.46;98158.34;6206569;28;96986;-60
2022/08/21 04:27:23;;;;;;;;;26.60;24.60;;;;;27.38;53.77;98162.34;6203884;28;97832;-59
2022/08/21 04:30:27;;;;;;;;;24.25;23.75;;;;;27.41;53.68;98150.59;6292065;27;96900;-55
2022/08/21 04:33:31;;;;;;;;;25.00;24.00;;;;;27.42;54.04;98152.19;6206439;28;96839;-62
2022/08/21 04:36:35;;;;;;;;;27.00;25.60;;;;;27.33;53.65;98129.38;6201406;28;97072;-62
2022/08/21 04:39:38;;;;;;;;;25.40;24.00;;;;;27.49;53.95;98158.78;6288437;27;97078;-62
2022/08/21 04:42:46;;;;;;;;;27.00;26.00;;;;;27.53;53.69;98162.47;6205306;28;97432;-61
2022/08/21 04:58:42;;;;;;;;;28.00;24.50;;;;;27.60;54.16;98166.59;6311348;27;96333;-63
2022/08/21 05:01:46;;;;;;;;;28.00;26.00;;;;;27.66;53.94;98163.22;6278100;27;97100;-63
2022/08/21 05:04:53;;;;;;;;;24.00;22.00;;;;;27.72;53.90;98174.84;6267940;27;97827;-66
2022/08/21 05:07:58;;;;;;;;;29.60;26.00;;;;;27.67;53.82;98155.72;6292140;27;97440;-61
2022/08/21 05:11:03;;;;;;;;;26.40;24.00;;;;;27.72;53.82;98158.25;6262369;27;98472;-61
2022/08/21 05:14:08;;;;;;;;;25.80;25.00;;;;;27.86;53.80;98176.06;6279658;27;97820;-61
2022/08/21 05:17:11;;;;;;;;;30.50;27.50;;;;;27.92;53.78;98176.63;6274830;27;97340;-60
2022/08/21 05:20:15;;;;;;;;;28.00;26.00;;;;;27.95;53.76;98181.50;6275323;27;96414;-61
2022/08/21 05:23:19;;;;;;;;;28.00;25.67;;;;;28.01;53.92;98183.63;6266393;27;97424;-61
2022/08/21 05:26:23;;;;;;;;;29.00;28.00;;;;;28.05;53.46;98181.00;6271384;27;96749;-61
2022/08/21 05:29:31;;;;;;;;;29.80;28.20;;;;;28.12;53.17;98185.94;6278043;27;97200;-62
2022/08/21 05:32:34;;;;;;;;;27.60;25.80;;;;;28.17;52.96;98192.03;6272772;27;97454;-62
2022/08/21 05:35:39;;;;;;;;;28.00;27.00;;;;;28.21;53.15;98190.16;6276790;27;97472;-62
2022/08/21 05:38:43;;;;;;;;;34.50;29.75;;;;;28.28;52.83;98190.38;6273644;27;96677;-64
2022/08/21 05:41:47;;;;;;;;;28.25;27.25;;;;;28.36;52.86;98185.81;6266795;27;97476;-58
2022/08/21 05:44:52;;;;;;;;;32.60;30.00;;;;;28.42;52.74;98192.72;6279787;27;96877;-59
2022/08/21 05:47:56;;;;;;;;;31.00;26.60;;;;;28.46;52.81;98178.94;6280585;27;99538;-61
2022/08/21 05:51:06;;;;;;;;;28.40;27.00;;;;;28.53;52.29;98190.22;6272275;27;97133;-61
2022/08/21 05:54:10;;;;;;;;;26.80;25.20;;;;;28.51;52.44;98179.47;6268528;27;97410;-59
2022/08/21 05:57:14;;;;;;;;;26.00;25.00;;;;;28.67;51.95;98173.94;6263558;27;97436;-61
2022/08/21 06:00:19;;;;;;;;;33.00;30.00;;;;;28.75;51.65;98178.53;6259282;27;97158;-62
2022/08/21 06:03:24;;;;;;;;;29.00;28.00;;;;;28.81;51.59;98186.22;6251448;27;98332;-61
2022/08/21 06:06:27;;;;;;;;;28.40;26.40;;;;;28.88;51.27;98179.25;6262528;27;97749;-61
2022/08/21 06:09:31;;;;;;;;;30.40;29.60;;;;;28.94;51.36;98189.69;6255658;27;98420;-61
2022/08/21 06:12:35;;;;;;;;;30.80;29.20;;;;;29.01;50.96;98181.56;6264804;27;96826;-62
2022/08/21 06:15:43;;;;;;;;;30.20;28.60;;;;;29.04;50.82;98174.47;6255951;27;97711;-60
2022/08/21 06:18:47;;;;;;;;;27.20;25.40;;;;;29.08;51.04;98186.47;6258522;27;97254;-60
2022/08/21 06:21:50;;;;;;;;;32.00;28.75;;;;;29.12;50.56;98179.03;6264809;27;97133;-62
2022/08/21 06:24:53;;;;;;;;;29.00;26.75;;;;;29.18;50.30;98177.59;6262744;27;97388;-61
2022/08/21 06:28:02;;;;;;;;;29.00;27.00;;;;;29.22;50.63;98179.28;6242378;27;97374;-60
2022/08/21 06:31:13;;;;;;;;;29.00;27.60;;;;;29.27;50.13;98173.44;6245780;27;97318;-61
2022/08/21 06:34:17;;;;;;;;;32.40;27.00;;;;;29.31;50.03;98181.91;6263171;27;96309;-61
2022/08/21 06:37:20;;;;;;;;;28.80;27.00;;;;;29.34;50.26;98183.13;6264184;27;97959;-62
2022/08/21 06:40:24;;;;;;;;;28.40;26.00;;;;;29.37;49.98;98190.75;6258263;27;97000;-61
2022/08/21 06:43:28;;;;;;;;;27.50;23.00;;;;;29.40;49.79;98182.50;6264269;27;97549;-61
2022/08/21 06:46:43;;;;;;;;;32.00;30.00;;;;;29.43;49.88;98183.75;6254918;27;98179;-60
2022/08/21 06:49:50;;;;;;;;;30.00;27.00;;;;;29.44;49.87;98190.91;6255315;27;97545;-59
2022/08/21 06:52:59;;;;;;;;;27.60;25.00;;;;;29.47;49.77;98209.63;6260374;27;97675;-62
2022/08/21 06:56:03;;;;;;;;;34.00;29.50;;;;;29.49;49.60;98208.09;6253931;27;97797;-61
2022/08/21 06:59:07;;;;;;;;;32.00;30.00;;;;;29.50;49.52;98201.38;6256075;27;97399;-61
2022/08/21 07:02:11;;;;;;;;;35.40;28.40;;;;;29.51;49.18;98199.41;6254614;27;97577;-62
2022/08/21 07:05:15;;;;;;;;;30.00;27.00;;;;;29.53;49.33;98194.28;6244626;27;97360;-61
2022/08/21 07:08:21;;;;;;;;;31.20;28.60;;;;;29.43;49.07;98200.41;6262828;27;97434;-60
2022/08/21 07:11:28;;;;;;;;;29.00;26.50;;;;;29.48;49.11;98195.38;6248295;27;96553;-62
2022/08/21 07:14:31;;;;;;;;;28.00;24.75;;;;;29.49;49.49;98207.28;6259162;27;97438;-61
2022/08/21 07:17:36;;;;;;;;;30.40;26.40;;;;;29.48;49.54;98206.47;6255647;27;97975;-62
2022/08/21 07:20:40;;;;;;;;;29.80;27.80;;;;;29.48;49.53;98208.44;6246671;27;97361;-60
2022/08/21 07:23:46;;;;;;;;;30.60;30.00;;;;;29.49;49.23;98201.72;6261860;27;97506;-61
2022/08/21 07:26:50;;;;;;;;;29.40;28.00;;;;;29.51;49.35;98199.41;6261946;27;97429;-61
2022/08/21 07:29:53;;;;;;;;;31.50;29.50;;;;;29.53;49.83;98202.63;6246276;27;96457;-59
2022/08/21 07:32:58;;;;;;;;;31.20;27.60;;;;;29.54;49.54;98196.72;6260133;27;97779;-61
2022/08/21 07:36:03;;;;;;;;;28.60;25.00;;;;;29.53;49.82;98200.66;6257190;27;97443;-61
2022/08/21 07:39:07;;;;;;;;;31.00;27.00;;;;;29.61;49.25;98205.22;6245887;27;96985;-61
2022/08/21 07:42:11;;;;;;;;;32.75;28.75;;;;;29.51;49.56;98188.31;6244079;27;96577;-60
2022/08/21 07:45:15;;;;;;;;;30.00;26.75;;;;;29.55;49.38;98194.72;6253246;27;96568;-60
2022/08/21 07:48:20;;;;;;;;;30.00;28.00;;;;;29.66;49.03;98207.66;6262915;27;96855;-62
2022/08/21 07:51:27;;;;;;;;;33.00;30.00;;;;;29.62;49.12;98190.13;6256011;27;96682;-63
2022/08/21 07:54:31;;;;;;;;;30.60;26.00;;;;;29.81;49.31;98199.66;6267149;27;96985;-61
2022/08/21 07:57:36;;;;;;;;;31.40;27.00;;;;;29.88;48.89;98208.94;6249254;27;97749;-63
2022/08/21 08:00:41;;;;;;;;;32.60;30.00;;;;;29.91;49.19;98210.22;6246154;27;97378;-62
2022/08/21 08:03:47;;;;;;;;;30.00;29.00;;;;;29.94;49.12;98212.28;6260380;27;96774;-65
2022/08/21 08:06:51;;;;;;;;;28.00;24.00;;;;;29.97;49.33;98208.75;6252949;27;96798;-64
2022/08/21 08:09:54;;;;;;;;;35.00;29.40;;;;;29.98;48.44;98207.59;6260806;27;97654;-63
2022/08/21 08:12:58;;;;;;;;;30.40;26.60;;;;;29.99;48.55;98212.78;6257481;27;96856;-60
2022/08/21 08:16:01;;;;;;;;;34.40;29.00;;;;;30.01;48.74;98202.09;6251507;27;97056;-62
2022/08/21 08:19:08;;;;;;;;;28.50;26.50;;;;;30.07;49.00;98203.41;6258353;27;98066;-62
2022/08/21 08:22:16;;;;;;;;;30.60;27.00;;;;;30.15;48.77;98203.56;6269329;27;97208;-64
2022/08/21 08:25:22;;;;;;;;;24.40;24.00;;;;;30.22;48.19;98196.16;6254276;27;96901;-61
2022/08/21 08:28:27;;;;;;;;;31.00;25.00;;;;;30.25;48.51;98200.97;6253294;27;97458;-61
2022/08/21 08:31:30;;;;;;;;;29.50;26.50;;;;;30.28;48.46;98200.25;6258248;27;97494;-61
2022/08/21 08:34:35;;;;;;;;;29.00;25.60;;;;;30.32;48.08;98198.34;6256007;27;100429;-59
2022/08/21 08:37:39;;;;;;;;;29.00;26.00;;;;;30.37;47.78;98189.69;6246024;27;97147;-60
2022/08/21 08:40:48;;;;;;;;;20.60;18.60;;;;;30.39;47.84;98201.28;6249306;27;96964;-60
2022/08/21 08:43:54;;;;;;;;;29.00;26.00;;;;;30.42;47.98;98197.75;6246516;27;96701;-62
2022/08/21 08:47:00;;;;;;;;;27.80;25.80;;;;;30.49;47.76;98202.69;6251235;27;97418;-61
2022/08/21 08:50:10;;;;;;;;;29.60;25.00;;;;;30.53;47.71;98201.56;6252499;27;97448;-62
2022/08/21 08:53:20;;;;;;;;;29.40;28.20;;;;;30.59;48.01;98196.50;6243798;27;98219;-61
2022/08/21 08:56:30;;;;;;;;;28.60;27.40;;;;;30.64;47.42;98198.97;6242119;27;97330;-61
2022/08/21 08:59:40;;;;;;;;;29.00;27.00;;;;;30.68;47.83;98197.06;6262154;27;97412;-61
2022/08/21 09:02:47;;;;;;;;;32.00;27.00;;;;;30.75;47.58;98194.38;6253350;27;97459;-60
2022/08/21 09:06:00;;;;;;;;;29.60;27.60;;;;;30.78;47.35;98195.63;6259148;27;96560;-62
2022/08/21 09:09:18;;;;;;;;;28.80;25.00;;;;;30.81;47.83;98197.66;6254131;27;97082;-60
2022/08/21 09:12:33;;;;;;;;;31.00;26.00;;;;;30.83;47.10;98192.53;6247532;27;97600;-63
2022/08/21 09:15:47;;;;;;;;;28.00;26.00;;;;;30.87;47.12;98190.63;6258678;27;97139;-61
2022/08/21 09:19:02;;;;;;;;;25.60;24.60;;;;;30.91;47.05;98185.91;6243397;27;97194;-62
2022/08/21 09:22:18;;;;;;;;;29.80;27.40;;;;;31.03;46.80;98188.53;6237145;27;97298;-64
2022/08/21 09:25:24;;;;;;;;;30.80;26.20;;;;;31.15;46.51;98184.72;6231099;27;97064;-65
2022/08/21 09:28:31;;;;;;;;;30.40;29.00;;;;;31.29;46.32;98185.75;6239225;27;97031;-57
2022/08/21 09:31:37;;;;;;;;;28.00;25.00;;;;;31.42;45.79;98186.34;6230530;27;97232;-59
2022/08/21 09:34:40;;;;;;;;;33.80;26.60;;;;;31.55;44.98;98178.56;6238985;27;97455;-61
2022/08/21 09:37:52;;;;;;;;;30.00;27.20;;;;;31.69;44.42;98171.22;6242240;27;97240;-60
2022/08/21 09:41:03;;;;;;;;;25.00;22.80;;;;;31.89;44.16;98173.84;6244650;27;97463;-63
2022/08/21 09:44:09;;;;;;;;;29.00;25.00;;;;;32.09;43.91;98167.72;6253032;27;97248;-64
2022/08/21 09:47:13;;;;;;;;;25.25;24.25;;;;;32.23;43.72;98164.31;6246424;27;97854;-62
2022/08/21 09:50:20;;;;;;;;;26.40;24.00;;;;;32.45;43.33;98168.91;6238821;27;97070;-65
2022/08/21 09:53:28;;;;;;;;;27.80;25.20;;;;;32.58;43.69;98170.25;6244761;27;98353;-62
2022/08/21 10:00:11;;;;;;;;;28.60;25.60;;;;;32.75;42.41;98162.44;6253037;27;98370;-62
2022/08/21 10:03:18;;;;;;;;;26.40;23.40;;;;;32.77;42.98;98155.31;6245143;27;97463;-64
2022/08/21 10:06:26;;;;;;;;;27.60;24.40;;;;;32.79;42.86;98163.31;6240603;27;97105;-61
2022/08/21 10:09:32;;;;;;;;;27.00;25.00;;;;;32.81;43.22;98169.28;6251763;27;97718;-62
2022/08/21 10:12:47;;;;;;;;;26.50;24.00;;;;;32.79;43.01;98168.88;6253456;27;97451;-59
2022/08/21 10:16:02;;;;;;;;;28.00;25.00;;;;;32.78;43.17;98176.47;6247683;27;97209;-62
2022/08/21 10:19:19;;;;;;;;;31.20;29.40;;;;;32.71;43.19;98175.56;6244097;27;97001;-60
2022/08/21 10:22:42;;;;;;;;;30.40;26.40;;;;;32.62;43.18;98179.47;6249853;27;97405;-61
2022/08/21 10:25:52;;;;;;;;;32.00;29.00;;;;;32.60;43.48;98172.66;6242393;27;97181;-63
2022/08/21 10:29:33;;;;;;;;;34.60;29.00;;;;;32.59;43.60;98171.88;6238334;27;100256;-61
2022/08/21 10:33:07;;;;;;;;;31.40;29.00;;;;;32.58;43.58;98170.25;6240158;27;96995;-60
2022/08/21 10:36:17;;;;;;;;;28.60;26.20;;;;;32.52;43.88;98173.78;6239530;27;97042;-60
2022/08/21 10:39:30;;;;;;;;;35.00;30.00;;;;;32.46;43.66;98176.13;6242347;27;96640;-59
2022/08/21 10:42:50;;;;;;;;;32.00;29.00;;;;;32.41;43.88;98173.66;6239252;27;97189;-61
2022/08/21 10:46:07;;;;;;;;;32.00;28.00;;;;;32.35;44.29;98169.66;6239708;27;96630;-60
2022/08/21 10:49:23;;;;;;;;;32.40;29.20;;;;;32.30;44.29;98167.19;6254477;27;97447;-60
2022/08/21 10:52:37;;;;;;;;;25.00;21.40;;;;;32.13;43.08;98179.75;6246612;27;98229;-62
2022/08/21 10:55:55;;;;;;;;;13.60;13.00;;;;;31.91;42.35;98189.03;6239820;27;98328;-62
2022/08/21 10:59:15;;;;;;;;;12.00;11.00;;;;;31.89;42.53;98188.59;6252247;27;96954;-60
2022/08/21 11:02:27;;;;;;;;;9.60;9.60;;;;;31.68;42.08;98175.19;6258101;27;97364;-58
2022/08/21 11:05:34;;;;;;;;;12.40;11.40;;;;;31.71;41.25;98193.16;6256518;27;97158;-60
2022/08/21 11:08:42;;;;;;;;;7.00;7.00;;;;;31.58;41.66;98198.13;6242727;27;97556;-59
2022/08/21 11:11:50;;;;;;;;;8.60;8.00;;;;;31.54;41.84;98196.44;6256969;27;96785;-61
2022/08/21 11:15:15;;;;;;;;;8.00;7.40;;;;;31.44;41.76;98189.53;6251521;27;96729;-59
2022/08/21 11:18:37;;;;;;;;;7.60;7.00;;;;;31.49;42.07;98194.78;6246720;27;96582;-66
2022/08/21 11:21:49;;;;;;;;;8.00;7.00;;;;;31.59;41.56;98188.59;6245959;27;97174;-60
2022/08/21 11:24:58;;;;;;;;;8.00;8.00;;;;;31.72;40.94;98186.38;6246904;27;97701;-61
2022/08/21 11:28:07;;;;;;;;;6.00;6.00;;;;;31.81;40.69;98192.47;6252280;27;97661;-61
2022/08/21 11:31:32;;;;;;;;;6.00;6.00;;;;;31.87;40.48;98190.94;6243509;27;96692;-61
2022/08/21 11:34:57;;;;;;;;;6.00;6.00;;;;;31.92;40.56;98196.19;6241816;27;97433;-60
2022/08/21 11:38:16;;;;;;;;;7.60;7.00;;;;;31.88;40.48;98194.53;6245664;27;96752;-61
2022/08/21 11:41:30;;;;;;;;;5.40;5.40;;;;;31.90;40.44;98200.56;6238278;27;96437;-59
2022/08/21 11:44:48;;;;;;;;;5.00;4.50;;;;;31.95;40.74;98195.44;6234721;27;96694;-61
2022/08/21 11:48:02;;;;;;;;;7.00;7.00;;;;;32.05;40.60;98196.75;6245477;27;97460;-64
2022/08/21 11:51:13;;;;;;;;;8.00;6.00;;;;;32.01;40.51;98193.13;6233126;27;98395;-62
2022/08/21 11:54:25;;;;;;;;;5.00;5.00;;;;;31.85;40.67;98184.97;6239744;27;97460;-61
2022/08/21 11:57:35;;;;;;;;;6.00;6.00;;;;;31.53;41.20;98164.19;6252836;27;96960;-62
2022/08/21 12:00:44;;;;;;;;;6.00;6.00;;;;;31.55;41.07;98179.34;6239412;27;96620;-63
2022/08/21 12:03:57;;;;;;;;;6.00;5.80;;;;;31.45;41.43;98182.78;6241255;27;97140;-58
2022/08/21 12:07:12;;;;;;;;;5.00;5.00;;;;;31.52;41.72;98184.88;6245089;27;97620;-60
2022/08/21 12:10:20;;;;;;;;;5.40;5.00;;;;;31.62;41.59;98176.69;6244743;27;97387;-56
2022/08/21 12:13:27;;;;;;;;;4.80;4.80;;;;;31.61;41.00;98174.28;6233118;27;98055;-59
2022/08/21 12:16:45;;;;;;;;;6.00;5.80;;;;;31.75;41.47;98172.50;6250246;27;96835;-60
2022/08/21 12:20:01;;;;;;;;;7.00;7.00;;;;;31.91;40.89;98171.50;6248110;27;98240;-61
2022/08/21 12:23:16;;;;;;;;;6.40;6.00;;;;;31.98;40.65;98172.38;6245366;27;99560;-59
2022/08/21 12:26:29;;;;;;;;;7.67;6.67;;;;;32.07;40.78;98175.66;6244925;27;97458;-60
2022/08/21 12:29:37;;;;;;;;;8.00;8.00;;;;;32.10;40.93;98171.31;6240240;27;97460;-59
2022/08/21 12:32:46;;;;;;;;;6.40;6.00;;;;;32.20;40.42;98162.31;6245963;27;97460;-61
2022/08/21 12:36:01;;;;;;;;;8.00;7.00;;;;;32.25;40.15;98164.75;6245514;27;96429;-60
2022/08/21 12:39:12;;;;;;;;;4.00;4.00;;;;;32.42;40.03;98171.69;6269989;27;98291;-58
2022/08/21 12:42:20;;;;;;;;;5.00;5.00;;;;;32.56;40.37;98167.03;6244491;27;96848;-63
2022/08/21 12:45:29;;;;;;;;;6.00;6.00;;;;;32.66;39.60;98174.75;6244817;27;97209;-66
2022/08/21 12:48:39;;;;;;;;;5.00;5.00;;;;;32.66;39.36;98173.94;6237374;28;96662;-60
2022/08/21 12:51:53;;;;;;;;;8.60;8.00;;;;;32.60;39.45;98173.47;6243155;27;96754;-60
2022/08/21 12:54:58;;;;;;;;;7.20;6.00;;;;;32.51;39.82;98172.97;6239381;27;96620;-61
2022/08/21 12:58:01;;;;;;;;;8.00;8.00;;;;;32.50;39.77;98171.38;6253289;27;98109;-62
2022/08/21 13:01:08;;;;;;;;;7.00;7.00;;;;;32.42;40.07;98175.28;6251468;27;96458;-61
2022/08/21 13:04:16;;;;;;;;;9.80;9.80;;;;;32.26;40.13;98171.91;6237092;27;96692;-59
2022/08/21 13:07:27;;;;;;;;;9.00;7.75;;;;;32.17;40.71;98169.44;6242692;27;96916;-60
2022/08/21 13:10:33;;;;;;;;;12.75;12.00;;;;;32.14;40.59;98167.41;6258177;27;96747;-61
2022/08/21 13:13:38;;;;;;;;;8.00;8.00;;;;;32.11;40.66;98159.00;6253986;27;98162;-61
2022/08/21 13:16:54;;;;;;;;;10.60;10.00;;;;;32.08;40.66;98156.94;6257375;27;98183;-58
2022/08/21 13:20:00;;;;;;;;;7.40;7.00;;;;;32.04;40.57;98150.53;6256568;27;97037;-60
2022/08/21 13:23:16;;;;;;;;;3.40;3.40;;;;;31.98;40.73;98168.78;6264274;27;97683;-62
2022/08/21 13:26:23;;;;;;;;;10.00;9.75;;;;;31.83;41.26;98165.00;6252448;27;96971;-59
2022/08/21 13:29:30;;;;;;;;;8.00;7.00;;;;;31.70;41.47;98170.03;6265407;27;97396;-60
2022/08/21 13:32:38;;;;;;;;;8.40;8.20;;;;;31.55;41.76;98176.56;6259124;27;97916;-60
2022/08/21 13:35:51;;;;;;;;;8.80;8.40;;;;;31.48;42.32;98175.66;6253863;27;96994;-63
2022/08/21 13:38:56;;;;;;;;;9.80;9.80;;;;;31.47;42.32;98172.09;6240522;27;97734;-62
2022/08/21 13:42:03;;;;;;;;;11.60;11.60;;;;;31.42;42.58;98166.84;6251526;27;97427;-59
2022/08/21 13:45:14;;;;;;;;;8.25;8.25;;;;;31.38;42.68;98179.91;6246954;27;96829;-59
2022/08/21 13:48:19;;;;;;;;;9.00;8.00;;;;;31.26;42.58;98186.50;6240824;27;97269;-57
2022/08/21 13:51:23;;;;;;;;;9.00;9.00;;;;;31.13;42.64;98201.03;6240742;27;96732;-61
2022/08/21 13:54:35;;;;;;;;;8.75;8.75;;;;;30.97;43.01;98193.59;6240483;28;97415;-62
2022/08/21 13:57:39;;;;;;;;;11.50;11.50;;;;;30.89;43.72;98204.94;6247390;27;96810;-59
2022/08/21 14:00:47;;;;;;;;;9.60;9.00;;;;;30.78;43.66;98207.56;6261928;27;96784;-61
2022/08/21 14:03:54;;;;;;;;;11.33;11.00;;;;;30.70;43.83;98196.66;6264313;27;97804;-64
2022/08/21 14:06:57;;;;;;;;;11.00;10.00;;;;;30.55;44.22;98204.75;6265856;27;97419;-58
2022/08/21 14:10:05;;;;;;;;;7.00;5.50;;;;;30.43;44.50;98187.44;6249771;27;96966;-60
2022/08/21 14:13:20;;;;;;;;;9.20;9.20;;;;;30.27;45.03;98197.84;6266221;27;98025;-60
2022/08/21 14:16:27;;;;;;;;;8.20;8.00;;;;;30.17;44.96;98173.41;6265548;27;97510;-60
2022/08/21 14:19:38;;;;;;;;;11.00;11.00;;;;;30.09;45.64;98170.50;6250231;27;97547;-61
2022/08/21 14:22:43;;;;;;;;;6.40;6.40;;;;;29.96;45.68;98179.34;6265006;27;97432;-59
2022/08/21 14:25:49;;;;;;;;;9.00;9.00;;;;;29.87;45.68;98175.97;6265728;27;96538;-63
2022/08/21 14:28:52;;;;;;;;;10.00;9.40;;;;;29.85;46.07;98184.69;6252862;27;97122;-63
2022/08/21 14:31:58;;;;;;;;;9.00;9.00;;;;;29.78;46.28;98183.72;6265241;27;98185;-59
2022/08/21 14:35:01;;;;;;;;;9.50;9.50;;;;;29.75;47.06;98184.44;6264866;27;97486;-61
2022/08/21 14:38:13;;;;;;;;;5.80;5.60;;;;;29.75;46.58;98187.22;6257801;27;96619;-62
2022/08/21 14:41:21;;;;;;;;;12.60;12.60;;;;;29.66;47.09;98196.56;6260345;27;97125;-58
2022/08/21 14:44:26;;;;;;;;;8.00;8.00;;;;;29.63;47.34;98204.81;6265129;27;97504;-57